createdAt,value
2022-08-17T00:00:08.887Z,18.60
2022-08-17T00:01:09.202Z,18.52
2022-08-17T00:02:14.513Z,18.48
2022-08-17T00:03:10.021Z,18.46
2022-08-17T00:04:11.920Z,18.43
2022-08-17T00:05:08.797Z,18.37
2022-08-17T00:06:08.765Z,18.34
2022-08-17T00:07:08.776Z,18.36
2022-08-17T00:08:08.750Z,18.36
2022-08-17T00:09:08.739Z,18.36
2022-08-17T00:10:08.744Z,18.36
2022-08-17T00:11:08.712Z,18.36
2022-08-17T00:12:51.381Z,18.36
2022-08-17T00:13:09.686Z,18.37
2022-08-17T00:14:08.672Z,18.37
2022-08-17T00:15:10.514Z,18.36
2022-08-17T00:16:08.643Z,18.39
2022-08-17T00:17:08.697Z,18.39
2022-08-17T00:26:05.060Z,18.46
2022-08-17T00:27:05.066Z,18.41
2022-08-17T00:28:05.016Z,18.41
2022-08-17T00:29:05.039Z,18.41
2022-08-17T00:30:05.013Z,18.45
2022-08-17T00:31:04.996Z,18.45
2022-08-17T00:33:22.894Z,18.34
2022-08-17T00:33:22.894Z,18.42
2022-08-17T00:34:05.968Z,18.31
2022-08-17T00:35:04.953Z,18.28
2022-08-17T01:12:54.351Z,18.82
2022-08-17T01:13:56.058Z,18.83
2022-08-17T01:14:54.306Z,18.86
2022-08-17T01:15:54.299Z,18.89
2022-08-17T01:16:56.063Z,18.92
2022-08-17T01:17:54.281Z,18.94
2022-08-17T01:18:54.306Z,18.98
2022-08-17T01:19:54.249Z,19.00
2022-08-17T01:20:54.252Z,19.04
2022-08-17T01:21:54.575Z,19.05
2022-08-17T01:41:06.466Z,19.39
2022-08-17T01:42:06.434Z,19.39
2022-08-17T01:43:09.184Z,19.39
2022-08-17T01:44:06.750Z,19.41
2022-08-17T01:45:06.408Z,19.39
2022-08-17T01:46:06.406Z,19.41
2022-08-17T01:47:06.385Z,19.42
2022-08-17T01:48:06.402Z,19.47
2022-08-17T01:49:06.388Z,19.49
2022-08-17T01:50:06.330Z,19.52
2022-08-17T02:09:16.558Z,19.60
2022-08-17T02:10:19.842Z,19.57
2022-08-17T02:11:11.667Z,19.59
2022-08-17T02:12:38.254Z,19.57
2022-08-17T02:13:10.989Z,19.59
2022-08-17T02:14:09.967Z,19.60
2022-08-17T02:15:10.259Z,19.60
2022-08-17T02:16:09.954Z,19.63
2022-08-17T02:17:09.937Z,19.64
2022-08-17T02:18:10.760Z,19.62
2022-08-17T02:19:09.883Z,19.63
2022-08-17T02:20:10.232Z,19.63
2022-08-17T02:21:09.854Z,19.67
2022-08-17T02:22:09.856Z,19.70
2022-08-17T02:23:09.867Z,19.67
2022-08-17T02:24:10.747Z,19.66
2022-08-17T02:25:09.804Z,19.60
2022-08-17T02:26:09.818Z,19.59
2022-08-17T02:27:10.802Z,19.55
2022-08-17T02:28:09.782Z,19.49
2022-08-17T02:29:09.771Z,19.45
2022-08-17T02:31:00.691Z,19.39
2022-08-17T02:31:10.796Z,19.32
2022-08-17T02:32:09.749Z,19.27
2022-08-17T02:33:10.705Z,19.26
2022-08-17T02:34:09.690Z,19.20
2022-08-17T02:35:09.990Z,19.12
2022-08-17T02:36:09.687Z,19.08
2022-08-17T02:37:09.713Z,19.07
2022-08-17T02:38:09.650Z,19.08
2022-08-17T02:39:09.908Z,19.05
2022-08-17T02:40:09.676Z,19.00
2022-08-17T02:41:09.614Z,18.98
2022-08-17T02:42:09.606Z,18.96
2022-08-17T02:43:09.593Z,18.92
2022-08-17T02:44:09.570Z,18.91
2022-08-17T02:45:09.574Z,18.89
2022-08-17T02:46:09.536Z,18.88
2022-08-17T02:47:09.540Z,18.86
2022-08-17T03:05:24.259Z,18.60
2022-08-17T03:06:24.250Z,18.55
2022-08-17T03:07:24.230Z,18.53
2022-08-17T03:08:24.254Z,18.53
2022-08-17T03:09:24.225Z,18.55
2022-08-17T03:10:24.209Z,18.55
2022-08-17T03:11:24.188Z,18.57
2022-08-17T03:12:24.176Z,18.57
2022-08-17T03:13:24.203Z,18.58
2022-08-17T03:14:25.931Z,18.58
2022-08-17T03:15:24.145Z,18.55
2022-08-17T03:16:24.120Z,18.57
2022-08-17T03:17:24.412Z,18.58
2022-08-17T03:18:25.932Z,18.57
2022-08-17T03:19:24.079Z,18.58
2022-08-17T03:20:24.080Z,18.57
2022-08-17T03:21:24.055Z,18.55
2022-08-17T03:22:35.892Z,18.55
2022-08-17T03:23:25.408Z,18.53
2022-08-17T03:24:28.663Z,18.53
2022-08-17T03:42:47.672Z,18.78
2022-08-17T03:43:47.711Z,18.78
2022-08-17T03:44:47.635Z,18.78
2022-08-17T03:45:47.619Z,18.81
2022-08-17T03:46:49.362Z,18.83
2022-08-17T03:47:47.593Z,18.85
2022-08-17T03:48:47.559Z,18.88
2022-08-17T03:49:47.570Z,18.89
2022-08-17T03:50:47.553Z,18.91
2022-08-17T03:51:47.522Z,18.91
2022-08-17T04:39:00.120Z,19.60
2022-08-17T04:40:04.135Z,19.59
2022-08-17T04:41:00.050Z,19.60
2022-08-17T04:42:00.058Z,19.59
2022-08-17T04:43:01.112Z,19.60
2022-08-17T04:44:00.024Z,19.57
2022-08-17T04:45:00.014Z,19.56
2022-08-17T04:46:00.316Z,19.57
2022-08-17T04:46:59.992Z,19.56
2022-08-17T04:47:59.995Z,19.55
2022-08-17T04:48:59.974Z,19.56
2022-08-17T04:49:59.960Z,19.56
2022-08-17T04:50:59.988Z,19.57
2022-08-17T04:52:04.415Z,19.57
2022-08-17T04:53:00.578Z,19.55
2022-08-17T04:53:59.913Z,19.55
2022-08-17T04:55:00.834Z,19.53
2022-08-17T04:55:59.922Z,19.53
2022-08-17T04:56:59.876Z,19.53
2022-08-17T04:57:59.862Z,19.52
2022-08-17T04:58:59.838Z,19.49
2022-08-17T04:59:59.805Z,19.49
2022-08-17T05:00:59.912Z,19.48
2022-08-17T05:01:59.806Z,19.47
2022-08-17T05:02:59.828Z,19.45
2022-08-17T05:03:59.787Z,19.42
2022-08-17T05:04:59.760Z,19.39
2022-08-17T05:06:00.072Z,19.39
2022-08-17T05:07:00.033Z,19.41
2022-08-17T05:08:00.003Z,19.39
2022-08-17T05:08:59.709Z,19.37
2022-08-17T05:09:59.705Z,19.34
2022-08-17T05:10:59.683Z,19.32
2022-08-17T05:11:59.725Z,19.32
2022-08-17T05:12:59.659Z,19.30
2022-08-17T05:13:59.674Z,19.30
2022-08-17T05:14:59.636Z,19.32
2022-08-17T05:16:00.416Z,19.32
2022-08-17T05:16:59.607Z,19.32
2022-08-17T05:17:59.601Z,19.32
2022-08-17T05:18:59.580Z,19.30
2022-08-17T05:19:59.551Z,19.30
2022-08-17T05:20:59.857Z,19.29
2022-08-17T05:21:59.586Z,19.29
2022-08-17T05:22:59.521Z,19.29
2022-08-17T05:23:59.765Z,19.29
2022-08-17T05:24:59.486Z,19.29
2022-08-17T05:25:59.491Z,19.32
2022-08-17T05:27:04.175Z,19.32
